Austinville, IA

7:35 PM CDT on July 28, 2014 (GMT -0500)
Jensen Farm (KIAIOWAF2) Elev 1129 ft | 42.50 °N, 93.20 °W | Change Station

Current weather conditions updated 29 seconds ago

Clear
Clear
70.4 °F
Feels Like 75 °F
N
3.0
Wind Variable Wind from NE
Gusts 5.0 mph

Tomorrow is forecast to be Warmer than today.

Today
High -- | Low -- °F
--% Chance of Precip.
Yesterday
High -- | Low -- °F
Precip. -- in
5:59 AM 8:36 PM
Waxing Crescent, 4% visible
Pressure 30.16 in
Visibility 10.0 miles
Clouds Clear
Heat Index 75 °F
Dew Point 59 °F
Humidity 67%
Rainfall 0.00 in
Snow Depth Not available.
UV 1 out of 12
Pollen 6.40 out of 12
Air Quality Not available.
Flu Activity Not available.
METAR KIFA 290015Z AUTO 34006KT 10SM CLR 22/12 A3016 RMK AO2 T02220118

More Conditions Fewer Conditions

Pressure 30.16 in
Visibility 10.0 miles
Clouds Clear
Heat Index 75 °F
Dew Point 59 °F
Humidity 67%
Rainfall 0.00 in
Snow Depth Not available.
UV 1 out of 12
Pollen 6.40 out of 12
Air Quality Not available.
Flu Activity Not available.
METAR KIFA 290015Z AUTO 34006KT 10SM CLR 22/12 A3016 RMK AO2 T02220118

More Conditions Fewer Conditions

10-Day Weather Forecast

Almanac

Astronomy

Jul. 28, 2014 Rise Set
Actual Time 5:59 AM CDT 8:36 PM CDT
Civil Twilight 5:27 AM CDT 9:08 PM CDT
Nautical Twilight 4:46 AM CDT 9:49 PM CDT
Astronomical Twilight 4:00 AM CDT 10:34 PM CDT
Moon 7:45 AM CDT (7/28) 9:14 PM CDT (7/28)
Length of Visible Light 15h 41m
Length of Day
14h 36m
Tomorrow will be 2m 5s shorter.
Waxing Crescent, 4% of the Moon is Illuminated
Today
Waxing Crescent
Aug 3
First Quarter
Aug 10
Full
Aug 17
Last Quarter
Aug 25
New

Today's Extremes

State Highs State Lows

Community

WunderPhotos

Upload Photos

1,738,562 photos uploaded!

WunderBlogs® & News

Nearby

Snow Depth

Station Depth Elevation
No new snow has been reported.

Earthquake Activity

City Distance Mag. Time & Date
No recent earthquake activity has been reported nearby.
Minimum magnitude displayed is 2.5.

Coastal Water Temperatures

Place Temperature
No Stations Reporting

Nearby Weather Stations

Station Location Temp. Heat Index Dew Point Humidity Wind Precip. Elev Updated Type
Jensen Farm, Iowa Falls, IA 70.4 °F 75 °F 59 °F 67% NE  at  3.0 mph 0.00 in / hr 1129 ft 7:35 PM CDT Rapid Fire
MesoWest ARGON , Bradford, IA 75 °F 73 °F - - North  at  - 0.00 in / hr 1198 ft 6:30 PM CDT MADIS
Meyer Agri-Air, Wellsburg, IA 69.9 °F - 59 °F 69% NNE  at  2.0 mph 0.00 in / hr 1093 ft 7:34 PM CDT Normal
Beeds Addition, Hampton, IA 71.6 °F 75 °F 60 °F 68% NW  at  3.8 mph 0.00 in / hr 1145 ft 7:35 PM CDT Rapid Fire
MesoWest SHEFFI , Chapin, IA 74 °F 72 °F - - North  at  - 0.00 in / hr 1154 ft 3:50 PM CDT MADIS

Show More Stations Show Fewer Stations